Time;durP1;ratioP1;P1;durP2;ratioP2;P2;SDS_P1;SDS_P2;PMS_P1;PMS_P2;Temp;Humidity;BMP_temperature;BMP_pressure;BME280_temperature;BME280_humidity;BME280_pressure;Samples;Min_cycle;Max_cycle;Signal;HPM_P1;HPM_P2
2021/04/11 00:01:00;;;;;;;0.77;0.77;;;7.80;99.90;;;;;;4429876;32;20123;-74
2021/04/11 00:03:28;;;;;;;2.25;1.42;;;7.90;99.90;;;;;;4430557;26;20070;-76
2021/04/11 00:05:53;;;;;;;3.72;1.67;;;7.80;99.90;;;;;;4413962;32;20069;-76
2021/04/11 00:08:21;;;;;;;2.95;1.20;;;7.80;99.90;;;;;;4414382;32;20089;-76
2021/04/11 00:10:50;;;;;;;1.27;1.10;;;7.80;99.90;;;;;;4414711;32;20462;-76
2021/04/11 00:13:28;;;;;;;1.00;1.00;;;7.90;99.90;;;;;;4413294;32;20121;-75
2021/04/11 00:15:53;;;;;;;1.35;1.23;;;7.90;99.90;;;;;;4413743;32;20460;-75
2021/04/11 00:18:19;;;;;;;1.48;1.35;;;7.80;99.90;;;;;;4413204;32;20149;-75
2021/04/11 00:20:45;;;;;;;1.52;1.30;;;7.90;99.90;;;;;;4413010;32;20538;-75
2021/04/11 00:23:11;;;;;;;15.52;2.35;;;7.90;99.90;;;;;;4413767;32;20522;-76
2021/04/11 00:25:39;;;;;;;2.85;1.50;;;7.90;99.90;;;;;;4413722;32;20132;-75
2021/04/11 00:28:07;;;;;;;1.98;1.08;;;7.90;99.90;;;;;;4413280;32;20069;-75
2021/04/11 00:30:33;;;;;;;2.20;1.58;;;7.80;99.90;;;;;;4413279;32;20086;-75
2021/04/11 00:33:01;;;;;;;9.73;1.67;;;7.80;99.90;;;;;;4413300;32;20342;-75
2021/04/11 00:35:27;;;;;;;5.85;1.87;;;7.80;99.90;;;;;;4412840;32;20069;-75
2021/04/11 00:37:53;;;;;;;1.98;1.60;;;7.70;99.90;;;;;;4413521;32;20425;-75
2021/04/11 00:40:25;;;;;;;2.25;1.33;;;7.80;99.90;;;;;;4414179;32;20066;-75
2021/04/11 00:42:55;;;;;;;3.25;1.10;;;7.70;99.90;;;;;;4413473;32;20168;-75
2021/04/11 00:45:28;;;;;;;18.93;3.20;;;7.80;99.90;;;;;;4413267;32;20065;-75
2021/04/11 00:47:55;;;;;;;2.62;1.60;;;7.80;99.90;;;;;;4412966;32;20050;-75
2021/04/11 00:50:22;;;;;;;10.75;1.87;;;7.80;99.90;;;;;;4412540;32;20066;-75
2021/04/11 00:52:48;;;;;;;4.30;1.37;;;7.80;99.90;;;;;;4411203;32;20081;-75
2021/04/11 00:55:16;;;;;;;2.15;1.20;;;7.70;99.90;;;;;;4412642;32;20175;-75
2021/04/11 00:57:43;;;;;;;1.90;1.20;;;7.70;99.90;;;;;;4412885;32;20074;-75
2021/04/11 01:00:09;;;;;;;8.88;1.58;;;7.70;99.90;;;;;;4413551;32;20062;-75
2021/04/11 01:02:38;;;;;;;1.17;1.10;;;7.70;99.90;;;;;;4416417;32;20070;-75
2021/04/11 01:05:12;;;;;;;1.73;0.98;;;7.80;99.90;;;;;;4417132;32;20120;-74
2021/04/11 01:07:40;;;;;;;3.12;0.90;;;7.80;99.90;;;;;;4417145;32;20070;-75
2021/04/11 01:10:09;;;;;;;2.37;1.62;;;7.70;99.90;;;;;;4419212;32;20421;-75
2021/04/11 01:12:35;;;;;;;1.62;1.20;;;7.70;99.90;;;;;;4419273;32;20058;-75
2021/04/11 01:15:01;;;;;;;1.48;1.02;;;7.70;99.90;;;;;;4417477;32;20125;-75
2021/04/11 01:17:26;;;;;;;2.95;1.37;;;7.70;99.90;;;;;;4417404;32;20095;-75
2021/04/11 01:19:53;;;;;;;11.27;1.58;;;7.70;99.90;;;;;;4417659;32;20066;-75
2021/04/11 01:22:50;;;;;;;2.05;1.73;;;7.80;99.90;;;;;;4417524;32;20514;-76
2021/04/11 01:25:19;;;;;;;0.93;0.93;;;7.80;99.90;;;;;;4406800;32;20423;-75
2021/04/11 01:27:45;;;;;;;1.40;1.23;;;7.80;99.90;;;;;;4417283;32;20459;-75
2021/04/11 01:30:15;;;;;;;4.75;1.27;;;7.80;99.90;;;;;;4417745;32;20094;-75
2021/04/11 01:32:42;;;;;;;14.73;2.08;;;7.80;99.90;;;;;;4417545;32;20433;-75
2021/04/11 01:35:09;;;;;;;2.90;1.65;;;7.80;99.90;;;;;;4417205;32;20569;-75
2021/04/11 01:37:36;;;;;;;1.33;0.73;;;7.80;99.90;;;;;;4418409;32;20542;-74
2021/04/11 01:40:03;;;;;;;1.67;1.30;;;7.70;99.90;;;;;;4417258;32;20428;-75
2021/04/11 01:42:28;;;;;;;2.45;1.35;;;7.70;99.90;;;;;;4417551;32;20058;-75
2021/04/11 01:44:55;;;;;;;2.67;1.58;;;7.70;99.90;;;;;;4418170;32;20189;-75
2021/04/11 01:47:20;;;;;;;2.45;1.55;;;7.70;99.90;;;;;;4417975;32;20109;-75
2021/04/11 01:49:47;;;;;;;2.83;1.80;;;7.80;99.90;;;;;;4418819;32;20483;-75
2021/04/11 01:52:19;;;;;;;1.58;1.40;;;7.80;99.90;;;;;;4418490;32;20568;-75
2021/04/11 01:54:46;;;;;;;2.40;1.48;;;7.80;99.90;;;;;;4417069;32;20450;-75
2021/04/11 01:57:33;;;;;;;6.20;1.33;;;7.80;99.90;;;;;;4417180;32;20423;-75
2021/04/11 02:00:18;;;;;;;2.45;1.52;;;7.80;99.90;;;;;;4407157;32;20089;-75
2021/04/11 02:02:44;;;;;;;2.78;1.62;;;7.90;99.90;;;;;;4416596;32;20066;-75
2021/04/11 02:05:14;;;;;;;3.30;1.90;;;7.80;99.90;;;;;;4417573;32;20061;-75
2021/04/11 02:07:40;;;;;;;3.22;1.58;;;7.90;99.90;;;;;;4417246;32;20514;-75
2021/04/11 02:10:08;;;;;;;4.28;2.03;;;7.90;99.90;;;;;;4416624;32;20077;-76
2021/04/11 02:12:35;;;;;;;8.95;1.85;;;7.80;99.90;;;;;;4417718;32;20061;-75
2021/04/11 02:15:06;;;;;;;6.72;2.17;;;7.90;99.90;;;;;;4414812;32;20069;-75
2021/04/11 02:17:32;;;;;;;1.25;0.93;;;7.80;99.90;;;;;;4414026;32;20133;-75
2021/04/11 02:19:57;;;;;;;4.85;2.47;;;7.80;99.90;;;;;;4415697;32;20080;-75
2021/04/11 02:22:26;;;;;;;12.93;1.75;;;7.80;99.90;;;;;;4413940;32;20069;-75
2021/04/11 02:24:53;;;;;;;2.25;1.50;;;7.80;99.90;;;;;;4413801;32;20497;-75
2021/04/11 02:27:21;;;;;;;11.50;2.72;;;7.90;99.90;;;;;;4414443;32;20062;-75
2021/04/11 02:29:47;;;;;;;5.20;1.77;;;7.90;99.90;;;;;;4415109;32;20073;-75
2021/04/11 02:32:14;;;;;;;1.80;1.62;;;7.80;99.90;;;;;;4415111;32;20162;-75
2021/04/11 02:34:40;;;;;;;9.90;1.60;;;7.80;99.90;;;;;;4413787;32;20515;-75
2021/04/11 02:37:13;;;;;;;3.70;1.75;;;7.80;99.90;;;;;;4414623;32;20100;-75
2021/04/11 02:39:42;;;;;;;6.75;2.37;;;7.80;99.90;;;;;;4414446;32;20485;-75
2021/04/11 02:42:14;;;;;;;1.58;1.08;;;7.80;99.90;;;;;;4414108;32;20584;-75
2021/04/11 02:44:42;;;;;;;1.50;1.10;;;7.70;99.90;;;;;;4414742;32;20133;-75
2021/04/11 02:47:08;;;;;;;2.30;1.77;;;7.70;99.90;;;;;;4415027;32;20139;-75
2021/04/11 02:49:34;;;;;;;1.23;1.12;;;7.70;99.90;;;;;;4414756;32;20066;-75
2021/04/11 02:52:05;;;;;;;3.70;1.42;;;7.80;99.90;;;;;;4413689;32;20086;-75
2021/04/11 02:54:31;;;;;;;2.55;1.30;;;7.70;99.90;;;;;;4412865;32;20338;-75
2021/04/11 02:56:58;;;;;;;2.50;1.75;;;7.70;99.90;;;;;;4414486;32;20142;-75
2021/04/11 02:59:24;;;;;;;2.35;1.75;;;7.70;99.90;;;;;;4413528;32;20061;-75
2021/04/11 03:01:52;;;;;;;3.00;1.65;;;7.80;99.90;;;;;;4413798;32;20079;-75
2021/04/11 03:04:20;;;;;;;5.57;2.72;;;7.90;99.90;;;;;;4414402;32;20177;-75
2021/04/11 03:06:56;;;;;;;5.20;2.20;;;7.90;99.90;;;;;;4414903;32;20416;-75
2021/04/11 03:09:28;;;;;;;4.60;2.03;;;7.80;99.90;;;;;;4413979;32;20143;-75
2021/04/11 03:11:56;;;;;;;6.07;2.53;;;7.80;99.90;;;;;;4414682;32;20066;-75
2021/04/11 03:14:26;;;;;;;2.67;1.75;;;7.90;99.90;;;;;;4414380;32;20501;-75
2021/04/11 03:16:52;;;;;;;6.05;2.67;;;7.90;99.90;;;;;;4414445;32;20057;-75
2021/04/11 03:19:23;;;;;;;8.75;2.83;;;7.90;99.90;;;;;;4413964;32;20533;-75
2021/04/11 03:21:48;;;;;;;4.85;1.87;;;7.80;99.90;;;;;;4414066;32;20058;-75
2021/04/11 03:24:14;;;;;;;1.90;1.77;;;7.70;99.90;;;;;;4413817;32;20514;-75
2021/04/11 03:26:43;;;;;;;8.88;2.97;;;7.70;99.90;;;;;;4414184;32;20062;-75
2021/04/11 03:29:23;;;;;;;9.13;2.12;;;7.80;99.90;;;;;;4414513;32;20089;-75
2021/04/11 03:31:56;;;;;;;4.53;2.20;;;7.80;99.90;;;;;;4415384;32;20062;-77
2021/04/11 03:34:24;;;;;;;4.15;2.28;;;7.80;99.90;;;;;;4413600;32;20073;-75
2021/04/11 03:36:52;;;;;;;8.75;2.72;;;7.80;99.90;;;;;;4414568;32;20078;-76
2021/04/11 03:39:17;;;;;;;6.70;2.50;;;7.80;99.90;;;;;;4414472;32;20548;-76
2021/04/11 03:41:46;;;;;;;3.28;2.17;;;7.80;99.90;;;;;;4414257;32;20066;-76
2021/04/11 03:44:18;;;;;;;2.55;1.73;;;7.80;99.90;;;;;;4414920;32;20073;-75
2021/04/11 03:47:10;;;;;;;2.53;1.77;;;7.80;99.90;;;;;;4413839;32;20077;-75
2021/04/11 03:49:46;;;;;;;5.85;1.85;;;7.70;99.90;;;;;;4402881;32;20058;-75
2021/04/11 03:52:20;;;;;;;8.27;2.97;;;7.80;99.90;;;;;;4413359;32;20530;-75
2021/04/11 03:54:46;;;;;;;1.75;1.30;;;7.80;99.90;;;;;;4412655;32;20069;-75
2021/04/11 03:57:17;;;;;;;11.00;2.37;;;7.80;99.90;;;;;;4413372;32;20074;-75
2021/04/11 03:59:50;;;;;;;2.12;1.60;;;7.90;99.90;;;;;;4414114;32;20089;-76
2021/04/11 04:02:18;;;;;;;4.00;1.83;;;7.80;99.90;;;;;;4414611;32;20087;-76
2021/04/11 04:04:46;;;;;;;2.85;2.08;;;7.80;99.90;;;;;;4412965;32;20093;-76
2021/04/11 04:07:15;;;;;;;6.93;2.30;;;7.80;99.90;;;;;;4413025;32;20083;-75
2021/04/11 04:09:43;;;;;;;4.57;2.28;;;7.80;99.90;;;;;;4413582;32;20483;-76
2021/04/11 04:12:18;;;;;;;7.25;3.35;;;7.90;99.90;;;;;;4414636;32;20486;-76
2021/04/11 04:15:13;;;;;;;3.03;1.92;;;7.90;99.90;;;;;;4414208;32;20485;-76
2021/04/11 04:18:19;;;;;;;3.35;1.80;;;7.90;99.90;;;;;;4401007;32;20062;-75
2021/04/11 04:21:06;;;;;;;4.55;2.37;;;8.00;99.90;;;;;;4393183;32;20070;-75
2021/04/11 04:24:12;;;;;;;6.12;2.85;;;7.90;99.90;;;;;;4400597;32;20165;-75
2021/04/11 04:27:17;;;;;;;2.42;1.85;;;7.80;99.90;;;;;;4392923;32;20153;-75
2021/04/11 04:30:09;;;;;;;9.05;1.80;;;7.90;99.90;;;;;;4393079;32;20109;-75
2021/04/11 04:32:47;;;;;;;7.40;2.50;;;7.80;99.90;;;;;;4401540;32;20073;-75
2021/04/11 04:35:32;;;;;;;8.98;3.17;;;7.80;99.90;;;;;;4412368;32;20074;-75
2021/04/11 04:38:22;;;;;;;5.72;1.87;;;7.80;99.90;;;;;;4412956;32;20078;-75
2021/04/11 04:40:51;;;;;;;10.68;2.62;;;7.80;99.90;;;;;;4402000;32;20061;-75
2021/04/11 04:43:29;;;;;;;6.72;2.28;;;7.80;99.90;;;;;;4414196;32;20081;-76
2021/04/11 04:46:08;;;;;;;2.87;1.95;;;7.80;99.90;;;;;;4412432;32;20085;-76
2021/04/11 04:48:51;;;;;;;2.28;1.70;;;7.80;99.90;;;;;;4412555;32;20073;-75
2021/04/11 04:51:40;;;;;;;2.90;2.00;;;7.90;99.90;;;;;;4413841;32;20073;-75
2021/04/11 04:54:20;;;;;;;3.45;2.03;;;7.90;99.90;;;;;;4402597;32;20117;-75
2021/04/11 04:57:00;;;;;;;1.67;1.35;;;7.90;99.90;;;;;;4412014;32;20070;-76
2021/04/11 04:59:33;;;;;;;12.18;2.47;;;7.90;99.90;;;;;;4413885;32;20070;-76
2021/04/11 05:02:06;;;;;;;4.30;1.98;;;7.90;99.90;;;;;;4412261;32;20147;-75
2021/04/11 05:04:35;;;;;;;7.97;1.58;;;7.90;99.90;;;;;;4413068;32;20428;-76
2021/04/11 05:07:13;;;;;;;7.68;2.95;;;7.90;99.90;;;;;;4412714;32;20132;-76
2021/04/11 05:09:47;;;;;;;5.68;2.87;;;7.90;99.90;;;;;;4413787;32;20196;-76
2021/04/11 05:12:37;;;;;;;6.55;2.40;;;7.90;99.90;;;;;;4413405;32;20082;-76
2021/04/11 05:15:15;;;;;;;3.40;2.12;;;8.00;99.90;;;;;;4402943;32;20458;-76
2021/04/11 05:17:45;;;;;;;5.18;2.42;;;8.00;99.90;;;;;;4413525;32;20066;-76
2021/04/11 05:20:15;;;;;;;6.00;2.95;;;7.90;99.90;;;;;;4412836;32;20066;-76
2021/04/11 05:22:52;;;;;;;3.05;2.17;;;7.90;99.90;;;;;;4411594;32;20061;-75
2021/04/11 05:25:27;;;;;;;3.00;2.33;;;8.00;99.90;;;;;;4412357;32;20519;-75
2021/04/11 05:28:02;;;;;;;5.57;2.42;;;8.00;99.90;;;;;;4412870;32;20077;-75
2021/04/11 05:30:34;;;;;;;5.50;2.03;;;8.00;99.90;;;;;;4412882;32;20817;-75
2021/04/11 05:33:00;;;;;;;4.37;2.50;;;8.10;99.90;;;;;;4412392;32;20223;-76
2021/04/11 05:35:28;;;;;;;3.92;2.60;;;8.00;99.90;;;;;;4412152;32;20506;-76
2021/04/11 05:38:08;;;;;;;5.80;2.83;;;8.10;99.90;;;;;;4412454;32;20058;-75
2021/04/11 05:40:38;;;;;;;5.15;2.65;;;8.10;99.90;;;;;;4412934;32;20137;-76
2021/04/11 05:43:16;;;;;;;3.17;2.12;;;8.20;99.90;;;;;;4413406;32;20086;-75
2021/04/11 05:45:59;;;;;;;1.83;1.67;;;8.20;99.90;;;;;;4412752;32;20074;-76
2021/04/11 05:49:02;;;;;;;8.77;2.67;;;8.30;99.90;;;;;;4413852;32;20113;-75
2021/04/11 05:51:37;;;;;;;39.13;2.35;;;8.20;99.90;;;;;;4415827;32;20125;-75
2021/04/11 05:54:12;;;;;;;6.25;2.60;;;8.20;99.90;;;;;;4415797;32;20415;-75
2021/04/11 05:56:41;;;;;;;6.20;2.35;;;8.20;99.90;;;;;;4415032;32;20455;-76
2021/04/11 05:59:15;;;;;;;10.02;3.12;;;8.20;99.90;;;;;;4416012;32;20062;-76
2021/04/11 06:01:45;;;;;;;2.22;1.87;;;8.20;99.90;;;;;;4415240;32;20066;-75
2021/04/11 06:04:20;;;;;;;3.95;2.78;;;8.20;99.90;;;;;;4414453;32;20062;-75
2021/04/11 06:07:00;;;;;;;1.45;1.30;;;8.30;99.90;;;;;;4415192;32;20081;-75
2021/04/11 06:09:33;;;;;;;4.53;3.35;;;8.20;99.90;;;;;;4414584;32;20481;-75
2021/04/11 06:12:25;;;;;;;9.95;3.17;;;8.30;99.90;;;;;;4400922;32;20514;-76
2021/04/11 06:15:03;;;;;;;2.80;1.67;;;8.30;99.90;;;;;;4389080;32;20117;-75
2021/04/11 06:17:30;;;;;;;3.90;2.08;;;8.30;99.90;;;;;;4399081;32;20081;-75
2021/04/11 06:19:56;;;;;;;2.72;2.03;;;8.20;99.90;;;;;;4399341;32;20070;-75
2021/04/11 06:22:45;;;;;;;4.05;2.00;;;8.20;99.90;;;;;;4399150;32;20177;-75
2021/04/11 06:25:18;;;;;;;6.55;2.37;;;8.30;99.90;;;;;;4399311;32;20058;-76
2021/04/11 06:28:06;;;;;;;6.05;2.55;;;8.30;99.90;;;;;;4399138;32;20074;-75
2021/04/11 06:30:36;;;;;;;17.58;3.08;;;8.30;99.90;;;;;;4388482;32;20125;-76
2021/04/11 06:33:13;;;;;;;9.00;2.42;;;8.30;99.90;;;;;;4400545;32;20066;-76
2021/04/11 06:35:47;;;;;;;2.72;1.37;;;8.30;99.90;;;;;;4400207;32;20066;-75
2021/04/11 06:38:20;;;;;;;6.32;2.33;;;8.50;99.90;;;;;;4399447;32;20073;-75
2021/04/11 06:41:12;;;;;;;7.28;2.60;;;8.50;99.90;;;;;;4399585;32;20062;-75
2021/04/11 06:44:06;;;;;;;2.85;2.45;;;8.50;99.90;;;;;;4388786;32;20438;-75
2021/04/11 06:46:36;;;;;;;18.05;2.65;;;8.50;99.90;;;;;;4387431;32;20079;-75
2021/04/11 06:49:34;;;;;;;3.03;1.55;;;8.60;99.90;;;;;;4398915;32;20082;-76
2021/04/11 06:52:10;;;;;;;2.55;2.08;;;8.70;99.90;;;;;;4390674;32;20065;-75
2021/04/11 06:54:58;;;;;;;26.25;2.95;;;8.80;99.90;;;;;;4399461;32;20062;-76
2021/04/11 06:57:36;;;;;;;3.92;1.95;;;8.90;99.90;;;;;;4398763;32;20074;-76
2021/04/11 07:00:28;;;;;;;5.53;2.22;;;9.10;99.90;;;;;;4398780;32;20066;-76
2021/04/11 07:03:15;;;;;;;3.33;2.42;;;9.10;99.90;;;;;;4387705;32;20081;-76
2021/04/11 07:06:20;;;;;;;3.33;2.28;;;9.30;99.90;;;;;;4399040;32;20070;-75
2021/04/11 07:09:26;;;;;;;3.62;2.08;;;9.40;99.90;;;;;;4393911;32;20073;-76
2021/04/11 07:12:01;;;;;;;7.53;1.98;;;9.40;99.90;;;;;;4393991;32;20110;-76
2021/04/11 07:15:00;;;;;;;7.82;2.72;;;9.20;99.90;;;;;;4414140;32;20404;-76
2021/04/11 07:17:31;;;;;;;1.95;1.58;;;9.10;99.90;;;;;;4404185;32;20094;-75
2021/04/11 07:20:30;;;;;;;6.75;2.97;;;9.20;99.90;;;;;;4399608;32;20073;-76
2021/04/11 07:23:27;;;;;;;3.22;2.08;;;9.50;99.90;;;;;;4401558;32;20443;-75
2021/04/11 07:26:14;;;;;;;3.30;1.70;;;9.70;99.90;;;;;;4402101;32;20070;-76
2021/04/11 07:29:09;;;;;;;15.80;2.90;;;10.00;99.90;;;;;;4402489;32;20193;-76
2021/04/11 07:31:50;;;;;;;1.42;1.15;;;10.10;99.90;;;;;;4402553;32;20597;-76
2021/04/11 07:34:35;;;;;;;;;;;10.20;99.90;;;;;;4413209;32;20519;-76
2021/04/11 07:37:12;;;;;;;10.15;2.55;;;10.20;99.90;;;;;;4403458;32;19941;-76
2021/04/11 07:40:03;;;;;;;1.90;1.55;;;10.20;99.90;;;;;;4412829;32;20057;-76
2021/04/11 07:42:54;;;;;;;6.03;1.83;;;10.30;99.90;;;;;;4402456;32;20506;-76
2021/04/11 07:45:48;;;;;;;4.85;2.67;;;10.40;99.90;;;;;;4401620;32;20086;-76
2021/04/11 07:48:54;;;;;;;3.03;1.60;;;10.40;99.90;;;;;;4402827;32;20058;-76
2021/04/11 07:51:57;;;;;;;4.62;1.30;;;10.50;99.90;;;;;;4394370;32;20066;-75
2021/04/11 07:54:42;;;;;;;2.58;1.70;;;10.50;99.90;;;;;;4404196;32;20073;-76
2021/04/11 07:57:36;;;;;;;2.03;1.30;;;10.60;99.90;;;;;;4414462;32;20080;-76
2021/04/11 08:00:28;;;;;;;6.80;2.42;;;10.70;99.90;;;;;;4414929;32;20125;-75
2021/04/11 08:03:14;;;;;;;2.15;1.37;;;10.80;99.90;;;;;;4414544;32;20081;-75
2021/04/11 08:06:08;;;;;;;6.90;2.45;;;10.90;99.90;;;;;;4392158;32;20077;-75
2021/04/11 08:09:12;;;;;;;1.45;1.30;;;11.00;99.90;;;;;;4403989;32;20464;-75
2021/04/11 08:12:14;;;;;;;1.62;1.40;;;11.10;99.90;;;;;;4403269;32;20392;-75
2021/04/11 08:15:04;;;;;;;5.03;2.60;;;11.30;99.90;;;;;;4403119;32;20182;-75
2021/04/11 08:17:40;;;;;;;6.85;1.52;;;11.40;99.90;;;;;;4413423;32;20081;-75
2021/04/11 08:20:31;;;;;;;3.20;1.67;;;11.30;99.90;;;;;;4414113;32;20416;-76
2021/04/11 08:23:31;;;;;;;3.28;1.90;;;11.50;99.90;;;;;;4400699;32;20066;-75
2021/04/11 08:26:36;;;;;;;3.12;1.58;;;11.60;99.90;;;;;;4402116;32;20073;-76
2021/04/11 08:29:23;;;;;;;3.80;1.73;;;11.60;99.90;;;;;;4393214;32;20082;-75
2021/04/11 08:32:00;;;;;;;3.08;1.15;;;11.50;99.90;;;;;;4402161;32;20498;-76
2021/04/11 08:34:47;;;;;;;4.53;2.50;;;11.50;99.90;;;;;;4412747;32;20073;-77
2021/04/11 08:37:32;;;;;;;3.17;1.90;;;11.70;99.90;;;;;;4401946;32;20502;-76
2021/04/11 08:40:09;;;;;;;2.03;1.60;;;11.80;99.90;;;;;;4413450;32;20487;-76
2021/04/11 08:42:53;;;;;;;2.83;2.00;;;11.90;99.90;;;;;;4412864;32;20069;-76
2021/04/11 08:45:26;;;;;;;3.10;1.30;;;11.90;99.90;;;;;;4414505;32;20062;-76
2021/04/11 08:48:06;;;;;;;7.20;1.62;;;12.00;99.90;;;;;;4412720;32;20074;-76
2021/04/11 08:50:55;;;;;;;3.50;1.83;;;12.10;99.90;;;;;;4412889;32;20062;-76
2021/04/11 08:53:33;;;;;;;3.95;2.45;;;12.00;99.90;;;;;;4401249;32;20538;-76
2021/04/11 08:56:38;;;;;;;4.82;1.15;;;12.00;99.90;;;;;;4412503;32;20061;-77
2021/04/11 08:59:17;;;;;;;1.65;1.25;;;12.10;99.90;;;;;;4393985;32;20117;-76
2021/04/11 09:02:16;;;;;;;1.98;1.60;;;12.20;99.90;;;;;;4414580;32;20086;-76
2021/04/11 09:05:09;;;;;;;8.40;1.58;;;12.20;99.90;;;;;;4401917;32;20069;-76
2021/04/11 09:08:10;;;;;;;1.77;1.42;;;12.20;99.90;;;;;;4403190;32;20362;-76
2021/04/11 09:10:50;;;;;;;3.28;2.10;;;12.20;99.90;;;;;;4400837;32;20492;-76
2021/04/11 09:13:32;;;;;;;7.68;2.55;;;12.40;99.90;;;;;;4413143;32;20427;-76
2021/04/11 09:16:10;;;;;;;2.37;1.85;;;12.60;99.90;;;;;;4412416;32;20065;-76
2021/04/11 09:18:58;;;;;;;1.37;1.25;;;12.80;99.90;;;;;;4412942;32;20078;-76
2021/04/11 09:21:37;;;;;;;4.97;1.48;;;12.90;99.90;;;;;;4402072;32;20073;-76
2021/04/11 09:24:09;;;;;;;3.72;1.45;;;12.90;99.90;;;;;;4413059;32;20094;-76
2021/04/11 09:26:59;;;;;;;1.35;0.80;;;13.00;99.90;;;;;;4415337;32;20065;-76
2021/04/11 09:30:05;;;;;;;0.90;0.90;;;13.10;99.90;;;;;;4416157;32;20066;-76
2021/04/11 09:32:58;;;;;;;18.73;2.28;;;13.20;99.90;;;;;;4395970;32;20081;-76
2021/04/11 09:35:35;;;;;;;5.43;2.37;;;13.50;99.90;;;;;;4403589;32;20083;-76
2021/04/11 09:38:18;;;;;;;0.73;0.73;;;13.70;99.90;;;;;;4414710;32;20074;-76
2021/04/11 09:41:11;;;;;;;1.83;1.27;;;14.00;99.90;;;;;;4413297;32;77002;-76
2021/04/11 09:43:56;;;;;;;11.23;2.35;;;14.00;99.90;;;;;;4404661;32;20074;-76
2021/04/11 09:46:48;;;;;;;1.20;1.05;;;14.10;99.90;;;;;;4415714;32;20054;-76
2021/04/11 09:49:53;;;;;;;2.42;1.02;;;13.90;99.90;;;;;;4415426;32;20083;-76
2021/04/11 09:52:44;;;;;;;5.07;1.95;;;13.90;99.90;;;;;;4394718;32;20070;-76
2021/04/11 09:55:19;;;;;;;1.10;1.00;;;14.10;99.90;;;;;;4403772;32;20077;-76
2021/04/11 09:58:00;;;;;;;3.33;2.35;;;14.20;99.90;;;;;;4414473;32;20356;-76
2021/04/11 10:00:54;;;;;;;2.53;1.95;;;14.20;99.90;;;;;;4415501;32;20116;-76
2021/04/11 10:03:29;;;;;;;2.03;1.30;;;14.30;99.90;;;;;;4415448;32;20062;-76
2021/04/11 10:06:17;;;;;;;0.90;0.82;;;14.20;99.90;;;;;;4415425;32;20046;-76
2021/04/11 10:09:11;;;;;;;0.98;0.93;;;14.20;99.90;;;;;;4404537;32;20081;-76
2021/04/11 10:11:54;;;;;;;4.37;1.95;;;14.40;99.90;;;;;;4403308;32;20128;-76
2021/04/11 10:14:40;;;;;;;4.25;1.77;;;14.50;99.90;;;;;;4415293;32;20054;-76
2021/04/11 10:17:46;;;;;;;18.17;3.75;;;14.70;99.90;;;;;;4404201;32;20065;-76
2021/04/11 10:20:36;;;;;;;1.42;1.30;;;14.80;99.90;;;;;;4394940;32;20050;-76
2021/04/11 10:23:41;;;;;;;3.50;1.08;;;14.80;99.90;;;;;;4402467;32;20094;-76
2021/04/11 10:26:18;;;;;;;0.60;0.60;;;14.90;99.90;;;;;;4394293;32;20341;-76
2021/04/11 10:28:53;;;;;;;1.65;1.30;;;15.00;99.90;;;;;;4415500;32;20057;-76
2021/04/11 10:31:37;;;;;;;1.70;1.12;;;15.20;99.90;;;;;;4414851;32;20110;-76
2021/04/11 10:34:17;;;;;;;4.80;2.37;;;15.30;99.90;;;;;;4413851;32;20086;-76
2021/04/11 10:36:49;;;;;;;2.28;1.23;;;15.30;99.90;;;;;;4413885;32;20057;-76
2021/04/11 10:39:26;;;;;;;0.88;0.77;;;15.40;99.90;;;;;;4414229;32;20066;-76
2021/04/11 10:42:03;;;;;;;1.10;1.00;;;15.70;99.90;;;;;;4414685;32;20419;-76
2021/04/11 10:44:40;;;;;;;0.65;0.65;;;16.10;99.90;;;;;;4414385;32;20135;-77
2021/04/11 10:47:23;;;;;;;7.97;1.27;;;16.60;99.90;;;;;;4414066;32;20061;-76
2021/04/11 10:49:57;;;;;;;3.80;1.27;;;16.80;99.90;;;;;;4414308;32;20250;-76
2021/04/11 10:52:49;;;;;;;0.85;0.85;;;17.10;99.90;;;;;;4414445;32;20061;-76
2021/04/11 10:55:41;;;;;;;4.10;1.77;;;17.80;99.90;;;;;;4403553;32;20086;-77
2021/04/11 10:58:35;;;;;;;0.82;0.82;;;18.10;99.90;;;;;;4402956;32;20065;-77
2021/04/11 11:01:21;;;;;;;1.75;0.77;;;18.80;99.90;;;;;;4414358;32;20122;-77
2021/04/11 11:04:11;;;;;;;1.52;1.42;;;19.20;99.90;;;;;;4413457;32;20412;-77
2021/04/11 11:06:58;;;;;;;2.78;1.08;;;19.30;99.90;;;;;;4403110;32;20066;-77
2021/04/11 11:09:30;;;;;;;0.85;0.85;;;19.60;99.90;;;;;;4413938;32;20065;-76
2021/04/11 11:12:17;;;;;;;2.12;0.70;;;19.70;99.90;;;;;;4413755;32;20117;-77
2021/04/11 11:14:55;;;;;;;1.20;1.00;;;20.10;99.90;;;;;;4415404;32;20061;-77
2021/04/11 11:17:42;;;;;;;2.30;0.80;;;20.30;99.40;;;;;;4415197;32;20124;-77
2021/04/11 11:20:18;;;;;;;1.50;1.08;;;20.50;97.60;;;;;;4402993;32;20091;-77
2021/04/11 11:23:15;;;;;;;3.42;1.30;;;20.70;97.80;;;;;;4413804;32;20384;-76
2021/04/11 11:26:14;;;;;;;0.32;0.32;;;20.70;96.60;;;;;;4403715;32;20078;-77
2021/04/11 11:29:10;;;;;;;0.60;0.60;;;21.00;92.50;;;;;;4403655;32;20054;-76
2021/04/11 11:31:53;;;;;;;6.50;1.37;;;20.90;90.50;;;;;;4402279;32;20072;-76
2021/04/11 11:34:33;;;;;;;3.22;0.70;;;20.30;90.70;;;;;;4413854;32;20079;-76
2021/04/11 11:37:35;;;;;;;13.57;1.10;;;20.60;90.00;;;;;;4414753;32;20408;-77
2021/04/11 11:40:22;;;;;;;1.50;0.82;;;21.20;86.70;;;;;;4404004;32;20500;-77
2021/04/11 11:43:26;;;;;;;0.43;0.43;;;21.60;87.10;;;;;;4402293;32;20062;-77
2021/04/11 11:46:14;;;;;;;1.23;1.08;;;22.10;82.70;;;;;;4405128;32;20133;-77
2021/04/11 11:48:50;;;;;;;1.30;0.70;;;21.80;83.50;;;;;;4403048;32;20219;-77
2021/04/11 11:51:44;;;;;;;1.37;0.60;;;21.40;84.10;;;;;;4414268;32;20455;-77
2021/04/11 11:54:16;;;;;;;0.50;0.50;;;22.00;83.40;;;;;;4402606;32;20085;-77
2021/04/11 11:56:55;;;;;;;0.52;0.50;;;22.80;81.50;;;;;;4413347;32;20391;-77
2021/04/11 11:59:27;;;;;;;0.47;0.47;;;23.00;79.00;;;;;;4413254;32;20136;-77
2021/04/11 12:01:55;;;;;;;2.30;0.93;;;23.00;77.20;;;;;;4413827;32;20121;-77
2021/04/11 12:04:31;;;;;;;0.28;0.28;;;23.50;75.40;;;;;;4412914;32;20057;-77
2021/04/11 12:06:59;;;;;;;0.37;0.32;;;23.10;72.80;;;;;;4414024;32;20125;-77
2021/04/11 12:09:31;;;;;;;2.05;0.73;;;23.30;73.60;;;;;;4413150;32;20058;-77
2021/04/11 12:12:19;;;;;;;9.05;0.70;;;23.70;72.10;;;;;;4413501;32;20069;-77
2021/04/11 12:15:13;;;;;;;0.37;0.35;;;24.10;70.70;;;;;;4402877;32;20570;-77
2021/04/11 12:18:02;;;;;;;0.30;0.30;;;24.50;69.10;;;;;;4403944;32;20078;-77
2021/04/11 12:20:39;;;;;;;1.75;0.62;;;24.30;68.60;;;;;;4403001;32;20066;-77
2021/04/11 12:23:27;;;;;;;1.25;0.75;;;23.70;66.90;;;;;;4413391;32;20074;-77
2021/04/11 12:26:10;;;;;;;0.43;0.43;;;23.70;67.30;;;;;;4402910;32;20066;-77
2021/04/11 12:28:38;;;;;;;1.12;0.80;;;24.10;67.00;;;;;;4415201;32;20065;-77
2021/04/11 12:31:23;;;;;;;0.55;0.45;;;24.60;65.30;;;;;;4415802;32;20479;-77
2021/04/11 12:34:03;;;;;;;1.17;0.95;;;24.70;65.20;;;;;;4413730;32;20074;-77
2021/04/11 12:37:08;;;;;;;0.30;0.30;;;24.50;65.90;;;;;;4412929;32;20523;-77
2021/04/11 12:39:35;;;;;;;0.32;0.32;;;24.30;67.40;;;;;;4393067;32;20125;-77
2021/04/11 12:42:28;;;;;;;1.92;0.90;;;24.70;64.80;;;;;;4413630;32;20090;-76
2021/04/11 12:45:02;;;;;;;2.47;0.62;;;25.10;64.00;;;;;;4402303;32;20062;-75
2021/04/11 12:47:51;;;;;;;0.10;0.10;;;25.20;63.30;;;;;;4413891;32;20149;-75
2021/04/11 12:50:35;;;;;;;0.95;0.40;;;25.20;63.50;;;;;;4401853;32;20050;-75
2021/04/11 12:53:15;;;;;;;0.32;0.30;;;25.70;61.00;;;;;;4411691;32;20057;-76
2021/04/11 12:55:51;;;;;;;0.65;0.65;;;25.80;60.70;;;;;;4412153;32;20054;-76
2021/04/11 12:58:24;;;;;;;0.28;0.28;;;25.30;62.60;;;;;;4412931;32;20401;-77
2021/04/11 13:01:27;;;;;;;0.57;0.47;;;24.70;61.10;;;;;;4413530;32;20054;-75
2021/04/11 13:03:55;;;;;;;0.20;0.20;;;24.10;62.80;;;;;;4403242;32;20053;-76
2021/04/11 13:06:26;;;;;;;3.95;1.17;;;24.90;61.40;;;;;;4412041;32;20058;-76
2021/04/11 13:09:23;;;;;;;0.70;0.50;;;25.70;60.00;;;;;;4412644;32;20097;-76
2021/04/11 13:12:02;;;;;;;0.15;0.15;;;26.30;58.70;;;;;;4400994;32;20104;-77
2021/04/11 13:14:33;;;;;;;2.10;0.50;;;26.40;58.20;;;;;;4412779;32;20066;-76
2021/04/11 13:17:03;;;;;;;2.28;0.40;;;26.30;58.60;;;;;;4412517;32;20050;-76
2021/04/11 13:19:34;;;;;;;0.32;0.32;;;25.60;57.40;;;;;;4412353;32;20074;-76
2021/04/11 13:22:09;;;;;;;1.87;0.52;;;25.40;59.90;;;;;;4412926;32;20608;-76
2021/04/11 13:24:39;;;;;;;0.50;0.50;;;24.90;59.00;;;;;;4412393;32;20062;-76
2021/04/11 13:27:18;;;;;;;;;;;23.90;59.70;;;;;;4412721;32;20058;-76
2021/04/11 13:30:02;;;;;;;8.73;2.03;;;23.50;61.90;;;;;;4413016;32;19953;-76
2021/04/11 13:32:54;;;;;;;1.00;0.45;;;23.00;63.50;;;;;;4398919;32;20517;-77
2021/04/11 13:35:28;;;;;;;0.30;0.20;;;22.80;64.50;;;;;;4402304;32;20087;-76
2021/04/11 13:38:01;;;;;;;1.45;0.82;;;23.40;63.20;;;;;;4412426;32;20046;-76
2021/04/11 13:40:31;;;;;;;0.30;0.30;;;24.30;60.60;;;;;;4412449;32;20507;-76
2021/04/11 13:43:18;;;;;;;0.75;0.40;;;24.50;59.80;;;;;;4414021;32;20087;-77
2021/04/11 13:45:53;;;;;;;1.10;0.52;;;24.50;60.70;;;;;;4412961;32;20132;-77
2021/04/11 13:48:40;;;;;;;1.40;0.70;;;24.20;59.80;;;;;;4412624;32;20635;-76
2021/04/11 13:51:28;;;;;;;0.30;0.30;;;23.60;61.30;;;;;;4400933;32;20053;-77
2021/04/11 13:54:00;;;;;;;0.20;0.20;;;23.20;62.80;;;;;;4400082;32;20085;-77